sensor_id;sensor_type;location;lat;lon;timestamp;P1;durP1;ratioP1;P2;durP2;ratioP2
36441;SDS011;64346;50.820;16.274;2023-07-02T00:01:01;11.38;;;5.80;;
36441;SDS011;64346;50.820;16.274;2023-07-02T00:03:48;12.43;;;6.32;;
36441;SDS011;64346;50.820;16.274;2023-07-02T00:06:15;11.10;;;5.40;;
36441;SDS011;64346;50.820;16.274;2023-07-02T00:08:43;10.07;;;5.57;;
36441;SDS011;64346;50.820;16.274;2023-07-02T00:11:10;12.63;;;5.57;;
36441;SDS011;64346;50.820;16.274;2023-07-02T00:13:38;10.63;;;5.28;;
36441;SDS011;64346;50.820;16.274;2023-07-02T00:16:05;11.65;;;5.30;;
36441;SDS011;64346;50.820;16.274;2023-07-02T00:18:35;9.98;;;5.10;;
36441;SDS011;64346;50.820;16.274;2023-07-02T00:21:02;9.77;;;4.95;;
36441;SDS011;64346;50.820;16.274;2023-07-02T00:23:30;9.63;;;5.45;;
36441;SDS011;64346;50.820;16.274;2023-07-02T00:26:00;12.57;;;5.43;;
36441;SDS011;64346;50.820;16.274;2023-07-02T00:28:27;15.15;;;9.07;;
36441;SDS011;64346;50.820;16.274;2023-07-02T00:30:54;24.67;;;14.20;;
36441;SDS011;64346;50.820;16.274;2023-07-02T00:33:24;13.50;;;8.25;;
36441;SDS011;64346;50.820;16.274;2023-07-02T00:35:54;12.07;;;5.88;;
36441;SDS011;64346;50.820;16.274;2023-07-02T00:38:24;12.33;;;5.43;;
36441;SDS011;64346;50.820;16.274;2023-07-02T00:40:51;10.45;;;5.55;;
36441;SDS011;64346;50.820;16.274;2023-07-02T00:43:18;13.20;;;5.40;;
36441;SDS011;64346;50.820;16.274;2023-07-02T00:45:48;10.18;;;5.22;;
36441;SDS011;64346;50.820;16.274;2023-07-02T00:48:17;9.20;;;4.65;;
36441;SDS011;64346;50.820;16.274;2023-07-02T00:50:45;9.55;;;4.68;;
36441;SDS011;64346;50.820;16.274;2023-07-02T00:53:13;9.98;;;4.55;;
36441;SDS011;64346;50.820;16.274;2023-07-02T00:55:40;9.18;;;4.97;;
36441;SDS011;64346;50.820;16.274;2023-07-02T00:58:10;7.32;;;4.38;;
36441;SDS011;64346;50.820;16.274;2023-07-02T01:00:37;8.60;;;4.05;;
36441;SDS011;64346;50.820;16.274;2023-07-02T01:03:07;11.98;;;4.63;;
36441;SDS011;64346;50.820;16.274;2023-07-02T01:08:07;9.65;;;4.53;;
36441;SDS011;64346;50.820;16.274;2023-07-02T01:10:35;10.25;;;5.10;;
36441;SDS011;64346;50.820;16.274;2023-07-02T01:13:08;10.43;;;5.47;;
36441;SDS011;64346;50.820;16.274;2023-07-02T01:15:46;12.80;;;5.70;;
36441;SDS011;64346;50.820;16.274;2023-07-02T01:18:17;10.45;;;5.63;;
36441;SDS011;64346;50.820;16.274;2023-07-02T01:20:44;11.73;;;5.72;;
36441;SDS011;64346;50.820;16.274;2023-07-02T01:23:13;9.85;;;5.25;;
36441;SDS011;64346;50.820;16.274;2023-07-02T01:25:41;11.35;;;5.50;;
36441;SDS011;64346;50.820;16.274;2023-07-02T01:28:08;11.15;;;4.88;;
36441;SDS011;64346;50.820;16.274;2023-07-02T01:30:39;9.55;;;5.18;;
36441;SDS011;64346;50.820;16.274;2023-07-02T01:33:09;11.23;;;5.60;;
36441;SDS011;64346;50.820;16.274;2023-07-02T01:35:36;10.02;;;4.75;;
36441;SDS011;64346;50.820;16.274;2023-07-02T01:38:09;12.23;;;5.30;;
36441;SDS011;64346;50.820;16.274;2023-07-02T01:40:38;9.40;;;4.28;;
36441;SDS011;64346;50.820;16.274;2023-07-02T01:43:10;8.35;;;4.30;;
36441;SDS011;64346;50.820;16.274;2023-07-02T01:45:43;7.05;;;3.97;;
36441;SDS011;64346;50.820;16.274;2023-07-02T01:48:12;6.82;;;3.33;;
36441;SDS011;64346;50.820;16.274;2023-07-02T01:50:42;6.13;;;2.70;;
36441;SDS011;64346;50.820;16.274;2023-07-02T01:53:09;5.47;;;2.42;;
36441;SDS011;64346;50.820;16.274;2023-07-02T01:55:37;2.85;;;1.88;;
36441;SDS011;64346;50.820;16.274;2023-07-02T01:58:04;5.00;;;2.47;;
36441;SDS011;64346;50.820;16.274;2023-07-02T02:00:31;4.30;;;2.03;;
36441;SDS011;64346;50.820;16.274;2023-07-02T02:03:00;3.55;;;1.90;;
36441;SDS011;64346;50.820;16.274;2023-07-02T02:05:27;2.50;;;1.90;;
36441;SDS011;64346;50.820;16.274;2023-07-02T02:07:55;3.95;;;1.98;;
36441;SDS011;64346;50.820;16.274;2023-07-02T02:10:22;2.50;;;1.80;;
36441;SDS011;64346;50.820;16.274;2023-07-02T02:12:52;3.00;;;1.88;;
36441;SDS011;64346;50.820;16.274;2023-07-02T02:15:19;2.80;;;1.70;;
36441;SDS011;64346;50.820;16.274;2023-07-02T02:17:46;4.03;;;2.10;;
36441;SDS011;64346;50.820;16.274;2023-07-02T02:20:14;5.40;;;2.00;;
36441;SDS011;64346;50.820;16.274;2023-07-02T02:22:41;3.53;;;1.98;;
36441;SDS011;64346;50.820;16.274;2023-07-02T02:25:11;4.30;;;2.15;;
36441;SDS011;64346;50.820;16.274;2023-07-02T02:27:40;3.75;;;2.03;;
36441;SDS011;64346;50.820;16.274;2023-07-02T02:30:08;4.75;;;1.95;;
36441;SDS011;64346;50.820;16.274;2023-07-02T02:32:35;4.70;;;2.10;;
36441;SDS011;64346;50.820;16.274;2023-07-02T02:35:03;2.67;;;1.70;;
36441;SDS011;64346;50.820;16.274;2023-07-02T02:37:30;4.50;;;1.58;;
36441;SDS011;64346;50.820;16.274;2023-07-02T02:40:02;3.75;;;1.60;;
36441;SDS011;64346;50.820;16.274;2023-07-02T02:42:35;3.10;;;1.85;;
36441;SDS011;64346;50.820;16.274;2023-07-02T02:45:05;4.30;;;1.85;;
36441;SDS011;64346;50.820;16.274;2023-07-02T02:47:32;2.47;;;1.42;;
36441;SDS011;64346;50.820;16.274;2023-07-02T02:50:00;8.23;;;2.22;;
36441;SDS011;64346;50.820;16.274;2023-07-02T02:52:27;3.65;;;1.63;;
36441;SDS011;64346;50.820;16.274;2023-07-02T02:54:55;2.50;;;1.40;;
36441;SDS011;64346;50.820;16.274;2023-07-02T02:57:22;1.52;;;1.38;;
36441;SDS011;64346;50.820;16.274;2023-07-02T02:59:49;3.97;;;1.70;;
36441;SDS011;64346;50.820;16.274;2023-07-02T03:02:19;2.55;;;1.52;;
36441;SDS011;64346;50.820;16.274;2023-07-02T03:04:49;2.92;;;1.67;;
36441;SDS011;64346;50.820;16.274;2023-07-02T03:07:17;2.67;;;1.52;;
36441;SDS011;64346;50.820;16.274;2023-07-02T03:09:47;4.07;;;1.63;;
36441;SDS011;64346;50.820;16.274;2023-07-02T03:12:14;2.97;;;1.50;;
36441;SDS011;64346;50.820;16.274;2023-07-02T03:14:41;3.28;;;1.50;;
36441;SDS011;64346;50.820;16.274;2023-07-02T03:17:12;1.40;;;1.30;;
36441;SDS011;64346;50.820;16.274;2023-07-02T03:19:40;4.10;;;1.90;;
36441;SDS011;64346;50.820;16.274;2023-07-02T03:22:09;4.38;;;1.50;;
36441;SDS011;64346;50.820;16.274;2023-07-02T03:24:37;1.40;;;1.30;;
36441;SDS011;64346;50.820;16.274;2023-07-02T03:27:04;3.53;;;2.15;;
36441;SDS011;64346;50.820;16.274;2023-07-02T03:29:33;2.10;;;1.63;;
36441;SDS011;64346;50.820;16.274;2023-07-02T03:32:03;1.20;;;1.10;;
36441;SDS011;64346;50.820;16.274;2023-07-02T03:34:31;1.30;;;1.20;;
36441;SDS011;64346;50.820;16.274;2023-07-02T03:37:01;1.60;;;1.35;;
36441;SDS011;64346;50.820;16.274;2023-07-02T03:39:28;3.20;;;1.60;;
36441;SDS011;64346;50.820;16.274;2023-07-02T03:41:56;1.83;;;1.40;;
36441;SDS011;64346;50.820;16.274;2023-07-02T03:44:23;1.50;;;1.20;;
36441;SDS011;64346;50.820;16.274;2023-07-02T03:46:50;1.90;;;1.20;;
36441;SDS011;64346;50.820;16.274;2023-07-02T03:49:20;2.15;;;1.58;;
36441;SDS011;64346;50.820;16.274;2023-07-02T03:51:49;1.40;;;1.30;;
36441;SDS011;64346;50.820;16.274;2023-07-02T03:54:19;5.60;;;1.98;;
36441;SDS011;64346;50.820;16.274;2023-07-02T03:56:48;6.30;;;2.72;;
36441;SDS011;64346;50.820;16.274;2023-07-02T03:59:16;5.57;;;2.00;;
36441;SDS011;64346;50.820;16.274;2023-07-02T04:01:43;1.70;;;1.60;;
36441;SDS011;64346;50.820;16.274;2023-07-02T04:04:13;2.45;;;1.50;;
36441;SDS011;64346;50.820;16.274;2023-07-02T04:06:42;1.88;;;1.42;;
36441;SDS011;64346;50.820;16.274;2023-07-02T04:09:10;3.47;;;1.60;;
36441;SDS011;64346;50.820;16.274;2023-07-02T04:11:39;4.28;;;1.70;;
36441;SDS011;64346;50.820;16.274;2023-07-02T04:14:07;3.45;;;1.98;;
36441;SDS011;64346;50.820;16.274;2023-07-02T04:16:34;3.42;;;1.45;;
36441;SDS011;64346;50.820;16.274;2023-07-02T04:19:01;1.65;;;1.55;;
36441;SDS011;64346;50.820;16.274;2023-07-02T04:21:29;5.35;;;1.77;;
36441;SDS011;64346;50.820;16.274;2023-07-02T04:23:56;1.95;;;1.48;;
36441;SDS011;64346;50.820;16.274;2023-07-02T04:26:24;4.18;;;1.80;;
36441;SDS011;64346;50.820;16.274;2023-07-02T04:29:11;3.83;;;1.73;;
36441;SDS011;64346;50.820;16.274;2023-07-02T04:31:41;2.40;;;1.40;;
36441;SDS011;64346;50.820;16.274;2023-07-02T04:34:08;2.50;;;1.63;;
36441;SDS011;64346;50.820;16.274;2023-07-02T04:36:38;1.98;;;1.58;;
36441;SDS011;64346;50.820;16.274;2023-07-02T04:39:05;3.03;;;1.30;;
36441;SDS011;64346;50.820;16.274;2023-07-02T04:41:32;2.58;;;1.50;;
36441;SDS011;64346;50.820;16.274;2023-07-02T04:44:00;3.80;;;1.40;;
36441;SDS011;64346;50.820;16.274;2023-07-02T04:46:27;4.63;;;2.05;;
36441;SDS011;64346;50.820;16.274;2023-07-02T04:48:54;2.13;;;1.30;;
36441;SDS011;64346;50.820;16.274;2023-07-02T04:51:24;2.13;;;1.50;;
36441;SDS011;64346;50.820;16.274;2023-07-02T04:53:54;1.83;;;1.30;;
36441;SDS011;64346;50.820;16.274;2023-07-02T04:56:23;2.15;;;1.30;;
36441;SDS011;64346;50.820;16.274;2023-07-02T04:58:51;4.90;;;2.85;;
36441;SDS011;64346;50.820;16.274;2023-07-02T05:01:18;1.65;;;1.33;;
36441;SDS011;64346;50.820;16.274;2023-07-02T05:03:46;1.52;;;1.35;;
36441;SDS011;64346;50.820;16.274;2023-07-02T05:06:15;3.05;;;1.40;;
36441;SDS011;64346;50.820;16.274;2023-07-02T05:08:45;1.70;;;1.40;;
36441;SDS011;64346;50.820;16.274;2023-07-02T05:11:12;2.08;;;1.27;;
36441;SDS011;64346;50.820;16.274;2023-07-02T05:13:39;1.67;;;1.30;;
36441;SDS011;64346;50.820;16.274;2023-07-02T05:16:06;1.42;;;1.20;;
36441;SDS011;64346;50.820;16.274;2023-07-02T05:18:36;1.30;;;1.20;;
36441;SDS011;64346;50.820;16.274;2023-07-02T05:21:03;2.47;;;1.30;;
36441;SDS011;64346;50.820;16.274;2023-07-02T05:23:31;2.55;;;1.40;;
36441;SDS011;64346;50.820;16.274;2023-07-02T05:26:01;2.17;;;1.17;;
36441;SDS011;64346;50.820;16.274;2023-07-02T05:28:29;2.75;;;1.20;;
36441;SDS011;64346;50.820;16.274;2023-07-02T05:30:58;2.03;;;1.27;;
36441;SDS011;64346;50.820;16.274;2023-07-02T05:33:28;2.72;;;1.33;;
36441;SDS011;64346;50.820;16.274;2023-07-02T05:35:55;3.05;;;1.40;;
36441;SDS011;64346;50.820;16.274;2023-07-02T05:38:23;3.53;;;1.70;;
36441;SDS011;64346;50.820;16.274;2023-07-02T05:40:52;6.72;;;2.78;;
36441;SDS011;64346;50.820;16.274;2023-07-02T05:43:22;3.78;;;2.30;;
36441;SDS011;64346;50.820;16.274;2023-07-02T05:45:51;6.45;;;2.70;;
36441;SDS011;64346;50.820;16.274;2023-07-02T05:48:19;4.20;;;1.92;;
36441;SDS011;64346;50.820;16.274;2023-07-02T05:50:46;4.70;;;2.10;;
36441;SDS011;64346;50.820;16.274;2023-07-02T05:53:14;2.78;;;1.48;;
36441;SDS011;64346;50.820;16.274;2023-07-02T05:55:42;3.25;;;1.67;;
36441;SDS011;64346;50.820;16.274;2023-07-02T05:58:10;2.60;;;1.67;;
36441;SDS011;64346;50.820;16.274;2023-07-02T06:00:39;6.93;;;3.03;;
36441;SDS011;64346;50.820;16.274;2023-07-02T06:03:09;4.60;;;2.30;;
36441;SDS011;64346;50.820;16.274;2023-07-02T06:05:36;5.43;;;2.05;;
36441;SDS011;64346;50.820;16.274;2023-07-02T06:08:04;3.42;;;1.90;;
36441;SDS011;64346;50.820;16.274;2023-07-02T06:10:34;4.53;;;2.42;;
36441;SDS011;64346;50.820;16.274;2023-07-02T06:13:01;5.22;;;2.45;;
36441;SDS011;64346;50.820;16.274;2023-07-02T06:15:28;2.92;;;1.90;;
36441;SDS011;64346;50.820;16.274;2023-07-02T06:17:56;3.65;;;1.85;;
36441;SDS011;64346;50.820;16.274;2023-07-02T06:20:23;3.15;;;2.00;;
36441;SDS011;64346;50.820;16.274;2023-07-02T06:22:53;3.65;;;2.05;;
36441;SDS011;64346;50.820;16.274;2023-07-02T06:25:20;4.85;;;2.30;;
36441;SDS011;64346;50.820;16.274;2023-07-02T06:27:50;3.40;;;1.83;;
36441;SDS011;64346;50.820;16.274;2023-07-02T06:30:17;4.70;;;2.38;;
36441;SDS011;64346;50.820;16.274;2023-07-02T06:32:44;2.78;;;2.00;;
36441;SDS011;64346;50.820;16.274;2023-07-02T06:35:12;3.97;;;2.40;;
36441;SDS011;64346;50.820;16.274;2023-07-02T06:37:39;4.72;;;2.20;;
36441;SDS011;64346;50.820;16.274;2023-07-02T06:40:09;3.17;;;1.90;;
36441;SDS011;64346;50.820;16.274;2023-07-02T06:42:37;2.85;;;1.70;;
36441;SDS011;64346;50.820;16.274;2023-07-02T06:45:07;3.70;;;2.00;;
36441;SDS011;64346;50.820;16.274;2023-07-02T06:47:35;4.25;;;1.90;;
36441;SDS011;64346;50.820;16.274;2023-07-02T06:50:02;2.85;;;1.40;;
36441;SDS011;64346;50.820;16.274;2023-07-02T06:52:32;3.60;;;1.70;;
36441;SDS011;64346;50.820;16.274;2023-07-02T06:54:59;2.05;;;1.27;;
36441;SDS011;64346;50.820;16.274;2023-07-02T06:57:27;2.25;;;1.42;;
36441;SDS011;64346;50.820;16.274;2023-07-02T07:00:01;3.22;;;1.63;;
36441;SDS011;64346;50.820;16.274;2023-07-02T07:02:29;1.33;;;1.20;;
36441;SDS011;64346;50.820;16.274;2023-07-02T07:04:56;2.50;;;1.52;;
36441;SDS011;64346;50.820;16.274;2023-07-02T07:07:26;2.15;;;1.10;;
36441;SDS011;64346;50.820;16.274;2023-07-02T07:09:54;1.80;;;1.30;;
36441;SDS011;64346;50.820;16.274;2023-07-02T07:12:21;3.30;;;2.00;;
36441;SDS011;64346;50.820;16.274;2023-07-02T07:14:48;1.63;;;1.27;;
36441;SDS011;64346;50.820;16.274;2023-07-02T07:17:16;4.85;;;2.08;;
36441;SDS011;64346;50.820;16.274;2023-07-02T07:19:43;1.58;;;1.40;;
36441;SDS011;64346;50.820;16.274;2023-07-02T07:22:13;3.53;;;1.50;;
36441;SDS011;64346;50.820;16.274;2023-07-02T07:24:41;1.40;;;1.30;;
36441;SDS011;64346;50.820;16.274;2023-07-02T07:27:09;1.67;;;1.33;;
36441;SDS011;64346;50.820;16.274;2023-07-02T07:29:39;3.63;;;1.65;;
36441;SDS011;64346;50.820;16.274;2023-07-02T07:32:08;2.60;;;1.48;;
36441;SDS011;64346;50.820;16.274;2023-07-02T07:34:36;4.78;;;2.30;;
36441;SDS011;64346;50.820;16.274;2023-07-02T07:37:03;7.22;;;3.53;;
36441;SDS011;64346;50.820;16.274;2023-07-02T07:39:31;5.53;;;3.20;;
36441;SDS011;64346;50.820;16.274;2023-07-02T07:41:58;5.20;;;2.38;;
36441;SDS011;64346;50.820;16.274;2023-07-02T07:44:28;3.03;;;2.08;;
36441;SDS011;64346;50.820;16.274;2023-07-02T07:46:55;2.78;;;1.60;;
36441;SDS011;64346;50.820;16.274;2023-07-02T07:49:27;2.22;;;1.45;;
36441;SDS011;64346;50.820;16.274;2023-07-02T07:51:57;3.45;;;1.80;;
36441;SDS011;64346;50.820;16.274;2023-07-02T07:54:24;2.83;;;1.70;;
36441;SDS011;64346;50.820;16.274;2023-07-02T07:56:51;3.53;;;1.70;;
36441;SDS011;64346;50.820;16.274;2023-07-02T07:59:19;4.85;;;1.90;;
36441;SDS011;64346;50.820;16.274;2023-07-02T08:01:46;3.67;;;2.30;;
36441;SDS011;64346;50.820;16.274;2023-07-02T08:04:16;7.60;;;2.47;;
36441;SDS011;64346;50.820;16.274;2023-07-02T08:06:44;3.83;;;2.20;;
36441;SDS011;64346;50.820;16.274;2023-07-02T08:09:11;4.78;;;2.45;;
36441;SDS011;64346;50.820;16.274;2023-07-02T08:11:38;4.13;;;2.30;;
36441;SDS011;64346;50.820;16.274;2023-07-02T08:14:06;5.45;;;2.50;;
36441;SDS011;64346;50.820;16.274;2023-07-02T08:16:33;3.97;;;2.80;;
36441;SDS011;64346;50.820;16.274;2023-07-02T08:19:03;7.40;;;3.15;;
36441;SDS011;64346;50.820;16.274;2023-07-02T08:21:30;5.55;;;3.10;;
36441;SDS011;64346;50.820;16.274;2023-07-02T08:23:57;5.50;;;2.90;;
36441;SDS011;64346;50.820;16.274;2023-07-02T08:26:25;8.10;;;3.85;;
36441;SDS011;64346;50.820;16.274;2023-07-02T08:28:55;3.67;;;2.50;;
36441;SDS011;64346;50.820;16.274;2023-07-02T08:31:22;3.38;;;2.10;;
36441;SDS011;64346;50.820;16.274;2023-07-02T08:33:50;2.78;;;2.03;;
36441;SDS011;64346;50.820;16.274;2023-07-02T08:36:18;4.95;;;2.20;;
36441;SDS011;64346;50.820;16.274;2023-07-02T08:38:50;3.35;;;2.20;;
36441;SDS011;64346;50.820;16.274;2023-07-02T08:41:20;4.45;;;2.22;;
36441;SDS011;64346;50.820;16.274;2023-07-02T08:43:47;3.88;;;2.35;;
36441;SDS011;64346;50.820;16.274;2023-07-02T08:46:15;4.15;;;2.05;;
36441;SDS011;64346;50.820;16.274;2023-07-02T08:48:46;2.65;;;1.90;;
36441;SDS011;64346;50.820;16.274;2023-07-02T08:51:13;4.18;;;2.33;;
36441;SDS011;64346;50.820;16.274;2023-07-02T08:53:43;3.03;;;2.10;;
36441;SDS011;64346;50.820;16.274;2023-07-02T08:56:11;2.80;;;2.13;;
36441;SDS011;64346;50.820;16.274;2023-07-02T08:58:38;3.03;;;2.33;;
36441;SDS011;64346;50.820;16.274;2023-07-02T09:03:37;4.57;;;2.95;;
36441;SDS011;64346;50.820;16.274;2023-07-02T09:06:07;4.60;;;2.67;;
36441;SDS011;64346;50.820;16.274;2023-07-02T09:08:38;5.97;;;2.75;;
36441;SDS011;64346;50.820;16.274;2023-07-02T09:11:09;4.85;;;2.40;;
36441;SDS011;64346;50.820;16.274;2023-07-02T09:13:41;3.65;;;2.22;;
36441;SDS011;64346;50.820;16.274;2023-07-02T09:19:05;4.28;;;2.40;;
36441;SDS011;64346;50.820;16.274;2023-07-02T09:21:42;3.03;;;2.20;;
36441;SDS011;64346;50.820;16.274;2023-07-02T09:26:45;2.08;;;1.77;;
36441;SDS011;64346;50.820;16.274;2023-07-02T09:32:01;2.72;;;1.90;;
36441;SDS011;64346;50.820;16.274;2023-07-02T09:34:37;5.68;;;2.70;;
36441;SDS011;64346;50.820;16.274;2023-07-02T09:37:24;3.75;;;2.53;;
36441;SDS011;64346;50.820;16.274;2023-07-02T09:39:51;2.60;;;2.00;;
36441;SDS011;64346;50.820;16.274;2023-07-02T09:42:20;4.63;;;2.50;;
36441;SDS011;64346;50.820;16.274;2023-07-02T09:44:48;8.00;;;3.65;;
36441;SDS011;64346;50.820;16.274;2023-07-02T09:47:22;6.55;;;3.35;;
36441;SDS011;64346;50.820;16.274;2023-07-02T09:49:55;6.53;;;3.17;;
36441;SDS011;64346;50.820;16.274;2023-07-02T09:52:31;7.70;;;3.30;;
36441;SDS011;64346;50.820;16.274;2023-07-02T09:54:59;8.80;;;4.85;;
36441;SDS011;64346;50.820;16.274;2023-07-02T09:57:27;6.05;;;2.78;;
36441;SDS011;64346;50.820;16.274;2023-07-02T09:59:54;5.38;;;2.58;;
36441;SDS011;64346;50.820;16.274;2023-07-02T10:02:22;5.85;;;2.63;;
36441;SDS011;64346;50.820;16.274;2023-07-02T10:04:52;3.72;;;2.20;;
36441;SDS011;64346;50.820;16.274;2023-07-02T10:07:26;5.30;;;2.10;;
36441;SDS011;64346;50.820;16.274;2023-07-02T10:09:58;3.75;;;2.15;;
36441;SDS011;64346;50.820;16.274;2023-07-02T10:12:26;4.43;;;2.47;;
36441;SDS011;64346;50.820;16.274;2023-07-02T10:14:55;4.32;;;2.28;;
36441;SDS011;64346;50.820;16.274;2023-07-02T10:17:31;3.47;;;1.98;;
36441;SDS011;64346;50.820;16.274;2023-07-02T10:20:03;6.10;;;3.00;;
36441;SDS011;64346;50.820;16.274;2023-07-02T10:22:48;5.82;;;2.72;;
36441;SDS011;64346;50.820;16.274;2023-07-02T10:25:25;4.45;;;2.80;;
36441;SDS011;64346;50.820;16.274;2023-07-02T10:27:55;6.43;;;3.75;;
36441;SDS011;64346;50.820;16.274;2023-07-02T10:30:36;5.72;;;2.63;;
36441;SDS011;64346;50.820;16.274;2023-07-02T10:35:41;3.92;;;2.13;;
36441;SDS011;64346;50.820;16.274;2023-07-02T10:38:17;5.65;;;2.47;;
36441;SDS011;64346;50.820;16.274;2023-07-02T10:40:54;3.38;;;2.00;;
36441;SDS011;64346;50.820;16.274;2023-07-02T10:43:26;2.78;;;2.00;;
36441;SDS011;64346;50.820;16.274;2023-07-02T10:45:57;3.70;;;1.88;;
36441;SDS011;64346;50.820;16.274;2023-07-02T10:48:25;5.43;;;2.20;;
36441;SDS011;64346;50.820;16.274;2023-07-02T10:50:52;3.10;;;2.00;;
36441;SDS011;64346;50.820;16.274;2023-07-02T10:53:23;5.60;;;2.60;;
36441;SDS011;64346;50.820;16.274;2023-07-02T10:55:54;5.25;;;2.80;;
36441;SDS011;64346;50.820;16.274;2023-07-02T10:58:24;7.13;;;2.95;;
36441;SDS011;64346;50.820;16.274;2023-07-02T11:00:54;4.25;;;2.30;;
36441;SDS011;64346;50.820;16.274;2023-07-02T11:03:25;5.13;;;2.50;;
36441;SDS011;64346;50.820;16.274;2023-07-02T11:05:53;6.07;;;2.38;;
36441;SDS011;64346;50.820;16.274;2023-07-02T11:08:24;3.67;;;2.03;;
36441;SDS011;64346;50.820;16.274;2023-07-02T11:11:07;4.32;;;2.25;;
36441;SDS011;64346;50.820;16.274;2023-07-02T11:13:43;5.72;;;2.05;;
36441;SDS011;64346;50.820;16.274;2023-07-02T11:16:24;3.55;;;2.28;;
36441;SDS011;64346;50.820;16.274;2023-07-02T11:18:54;6.18;;;2.47;;
36441;SDS011;64346;50.820;16.274;2023-07-02T11:21:32;3.17;;;1.85;;
36441;SDS011;64346;50.820;16.274;2023-07-02T11:24:06;2.72;;;1.90;;
36441;SDS011;64346;50.820;16.274;2023-07-02T11:26:36;3.92;;;2.10;;
36441;SDS011;64346;50.820;16.274;2023-07-02T11:29:07;3.30;;;1.92;;
36441;SDS011;64346;50.820;16.274;2023-07-02T11:34:14;4.72;;;2.10;;
36441;SDS011;64346;50.820;16.274;2023-07-02T11:36:47;2.75;;;1.70;;
36441;SDS011;64346;50.820;16.274;2023-07-02T11:39:15;3.47;;;1.95;;
36441;SDS011;64346;50.820;16.274;2023-07-02T11:41:45;6.82;;;2.70;;
36441;SDS011;64346;50.820;16.274;2023-07-02T11:44:16;2.83;;;2.05;;
36441;SDS011;64346;50.820;16.274;2023-07-02T11:46:46;4.40;;;2.20;;
36441;SDS011;64346;50.820;16.274;2023-07-02T11:49:17;4.32;;;2.00;;
36441;SDS011;64346;50.820;16.274;2023-07-02T11:51:44;4.15;;;2.63;;
36441;SDS011;64346;50.820;16.274;2023-07-02T11:54:15;3.70;;;2.20;;
36441;SDS011;64346;50.820;16.274;2023-07-02T11:56:45;6.57;;;2.13;;
36441;SDS011;64346;50.820;16.274;2023-07-02T11:59:12;3.55;;;1.90;;
36441;SDS011;64346;50.820;16.274;2023-07-02T12:01:42;3.30;;;1.90;;
36441;SDS011;64346;50.820;16.274;2023-07-02T12:04:10;3.03;;;2.03;;
36441;SDS011;64346;50.820;16.274;2023-07-02T12:06:40;3.22;;;1.60;;
36441;SDS011;64346;50.820;16.274;2023-07-02T12:09:07;4.50;;;2.45;;
36441;SDS011;64346;50.820;16.274;2023-07-02T12:11:34;5.28;;;2.80;;
36441;SDS011;64346;50.820;16.274;2023-07-02T12:14:02;4.32;;;2.30;;
36441;SDS011;64346;50.820;16.274;2023-07-02T12:16:31;5.10;;;2.60;;
36441;SDS011;64346;50.820;16.274;2023-07-02T12:18:59;2.67;;;2.20;;
36441;SDS011;64346;50.820;16.274;2023-07-02T12:21:26;5.78;;;2.40;;
36441;SDS011;64346;50.820;16.274;2023-07-02T12:23:56;5.20;;;2.97;;
36441;SDS011;64346;50.820;16.274;2023-07-02T12:26:23;5.80;;;2.75;;
36441;SDS011;64346;50.820;16.274;2023-07-02T12:28:50;6.28;;;2.83;;
36441;SDS011;64346;50.820;16.274;2023-07-02T12:31:18;5.70;;;2.38;;
36441;SDS011;64346;50.820;16.274;2023-07-02T12:33:48;3.95;;;2.00;;
36441;SDS011;64346;50.820;16.274;2023-07-02T12:36:17;4.55;;;2.38;;
36441;SDS011;64346;50.820;16.274;2023-07-02T12:38:45;2.60;;;1.98;;
36441;SDS011;64346;50.820;16.274;2023-07-02T12:41:14;3.47;;;2.22;;
36441;SDS011;64346;50.820;16.274;2023-07-02T12:43:42;6.97;;;3.33;;
36441;SDS011;64346;50.820;16.274;2023-07-02T12:46:09;5.65;;;2.58;;
36441;SDS011;64346;50.820;16.274;2023-07-02T12:48:37;4.10;;;2.30;;
36441;SDS011;64346;50.820;16.274;2023-07-02T12:51:04;10.98;;;2.70;;
36441;SDS011;64346;50.820;16.274;2023-07-02T12:53:34;4.88;;;2.30;;
36441;SDS011;64346;50.820;16.274;2023-07-02T12:56:01;5.80;;;2.13;;
36441;SDS011;64346;50.820;16.274;2023-07-02T12:58:29;3.78;;;2.38;;
36441;SDS011;64346;50.820;16.274;2023-07-02T13:00:59;8.35;;;4.65;;
36441;SDS011;64346;50.820;16.274;2023-07-02T13:03:29;6.97;;;2.28;;
36441;SDS011;64346;50.820;16.274;2023-07-02T13:06:00;2.47;;;2.00;;
36441;SDS011;64346;50.820;16.274;2023-07-02T13:08:28;3.28;;;2.13;;
36441;SDS011;64346;50.820;16.274;2023-07-02T13:10:55;3.80;;;2.25;;
36441;SDS011;64346;50.820;16.274;2023-07-02T13:13:30;3.85;;;2.33;;
36441;SDS011;64346;50.820;16.274;2023-07-02T13:16:06;3.22;;;2.03;;
36441;SDS011;64346;50.820;16.274;2023-07-02T13:18:42;3.85;;;2.00;;
36441;SDS011;64346;50.820;16.274;2023-07-02T13:21:09;4.20;;;1.98;;
36441;SDS011;64346;50.820;16.274;2023-07-02T13:23:37;3.05;;;1.88;;
36441;SDS011;64346;50.820;16.274;2023-07-02T13:26:04;4.25;;;2.30;;
36441;SDS011;64346;50.820;16.274;2023-07-02T13:28:34;5.38;;;2.50;;
36441;SDS011;64346;50.820;16.274;2023-07-02T13:31:01;3.65;;;2.33;;
36441;SDS011;64346;50.820;16.274;2023-07-02T13:33:28;7.63;;;2.50;;
36441;SDS011;64346;50.820;16.274;2023-07-02T13:35:58;5.38;;;2.40;;
36441;SDS011;64346;50.820;16.274;2023-07-02T13:38:25;3.60;;;2.45;;
36441;SDS011;64346;50.820;16.274;2023-07-02T13:40:53;3.15;;;2.20;;
36441;SDS011;64346;50.820;16.274;2023-07-02T13:43:23;3.10;;;2.00;;
36441;SDS011;64346;50.820;16.274;2023-07-02T13:45:50;3.67;;;2.03;;
36441;SDS011;64346;50.820;16.274;2023-07-02T13:48:20;8.52;;;4.38;;
36441;SDS011;64346;50.820;16.274;2023-07-02T13:50:47;12.85;;;2.90;;
36441;SDS011;64346;50.820;16.274;2023-07-02T13:53:15;5.38;;;3.20;;
36441;SDS011;64346;50.820;16.274;2023-07-02T13:55:42;4.25;;;2.08;;
36441;SDS011;64346;50.820;16.274;2023-07-02T13:58:10;3.55;;;2.10;;
36441;SDS011;64346;50.820;16.274;2023-07-02T14:00:41;4.15;;;1.92;;
36441;SDS011;64346;50.820;16.274;2023-07-02T14:03:09;5.03;;;1.98;;
36441;SDS011;64346;50.820;16.274;2023-07-02T14:05:36;5.63;;;2.20;;
36441;SDS011;64346;50.820;16.274;2023-07-02T14:08:06;3.70;;;2.30;;
36441;SDS011;64346;50.820;16.274;2023-07-02T14:10:34;2.90;;;1.83;;
36441;SDS011;64346;50.820;16.274;2023-07-02T14:13:04;3.92;;;2.03;;
36441;SDS011;64346;50.820;16.274;2023-07-02T14:15:34;2.30;;;1.88;;
36441;SDS011;64346;50.820;16.274;2023-07-02T14:18:01;6.60;;;3.83;;
36441;SDS011;64346;50.820;16.274;2023-07-02T14:20:29;18.60;;;10.82;;
36441;SDS011;64346;50.820;16.274;2023-07-02T14:23:05;9.63;;;4.03;;
36441;SDS011;64346;50.820;16.274;2023-07-02T14:25:32;5.22;;;2.83;;
36441;SDS011;64346;50.820;16.274;2023-07-02T14:28:08;5.05;;;2.55;;
36441;SDS011;64346;50.820;16.274;2023-07-02T14:30:37;2.97;;;2.13;;
36441;SDS011;64346;50.820;16.274;2023-07-02T14:33:05;4.68;;;1.98;;
36441;SDS011;64346;50.820;16.274;2023-07-02T14:35:32;3.65;;;1.95;;
36441;SDS011;64346;50.820;16.274;2023-07-02T14:38:00;4.60;;;1.88;;
36441;SDS011;64346;50.820;16.274;2023-07-02T14:40:38;5.05;;;2.40;;
36441;SDS011;64346;50.820;16.274;2023-07-02T14:43:09;5.15;;;2.20;;
36441;SDS011;64346;50.820;16.274;2023-07-02T14:45:43;6.53;;;2.60;;
36441;SDS011;64346;50.820;16.274;2023-07-02T14:48:18;4.50;;;2.30;;
36441;SDS011;64346;50.820;16.274;2023-07-02T14:50:48;3.20;;;2.25;;
36441;SDS011;64346;50.820;16.274;2023-07-02T14:53:17;3.85;;;2.20;;
36441;SDS011;64346;50.820;16.274;2023-07-02T14:55:45;2.58;;;1.90;;
36441;SDS011;64346;50.820;16.274;2023-07-02T14:58:17;3.17;;;1.80;;
36441;SDS011;64346;50.820;16.274;2023-07-02T15:00:45;4.53;;;2.00;;
36441;SDS011;64346;50.820;16.274;2023-07-02T15:03:16;3.30;;;2.22;;